Etusivu
METAR-TAF:

METAR-TAF

Lentoasemat :

Ateenan kansainvälinen lentoasema

Ateena, Kreikka

Leveyspiiri: 37-56N, Pituuspiiri: 023-56E, korkeus merenpinnasta: 94 m

Tämänhetkinen sää

Tämä raportti tehtiin 25 minuuttia sitten, kello 06.50 UTC
Tuuli 2 kn eri suunnista
Lämpötila 28°C
Kosteus 37%
Ilmanpaine 1013 hPa
Näkyvyys 10 km tai enemmän
Muutamia pilviä 3000 ft:n korkeudessa

METAR: LGAV 220650Z VRB02KT 9999 FEW030 28/12 Q1013 NOSIG

Aika: 10:15 (07:15 UTC)

Sääennuste

Tämä raportti tehtiin 2 tuntia ja 15 minuuttia sitten, kello 05.00 UTC
Ennuste voimassa 22. päivästä klo 06 UTC - 23. päivään klo 06 UTC
Tuuli 3 kn eri suunnista
Näkyvyys 10 km tai enemmän
Muutamia pilviä 3000 ft:n korkeudessa
Tulossa
22. päivästä klo 08 UTC - 22. päivään klo 10 UTC
Tuuli 13 kn lounaasta
Tulossa
22. päivästä klo 17 UTC - 22. päivään klo 19 UTC
Tuuli 10 kn lännestä/luoteesta

TAF: LGAV 220500Z 2206/2306 VRB03KT 9999 FEW030 BECMG 2208/2210 23013KT BECMG 2217/2219 29010KT

Säähavainnot ja -ennusteet yli 4000 lentoasemalta (METAR- ja TAF-raportit).

Käytössä olevat sääasemat on merkitty karttaan keltaisilla ja punaisilla pisteillä.

Aseta hiiri pisteen päälle nähdäksesi sääaseman nimen.

Klikkaa sitten nähdäksesi säähavainnot ja -ennusteet.

Kartan vaihtaminen: klikkaa mustalla rastilla varustettuja vihreitä pisteitä, niin voit zoomata sisään; viivalla varustettua vihreää pistettä, niin voit zoomata ulos tai vihreitä nuolia, niin pääset viereisille kartoille.


METAR-TAF: